createdAt,value
2022-10-13T00:01:20.870Z,9.00
2022-10-13T00:03:48.907Z,8.90
2022-10-13T00:06:25.490Z,8.90
2022-10-13T00:08:53.759Z,8.90
2022-10-13T00:11:25.211Z,9.00
2022-10-13T00:13:55.512Z,8.90
2022-10-13T00:16:24.125Z,8.90
2022-10-13T00:18:54.197Z,8.90
2022-10-13T00:21:24.251Z,8.90
2022-10-13T00:23:53.505Z,8.90
2022-10-13T00:26:23.221Z,8.90
2022-10-13T00:28:52.834Z,8.90
2022-10-13T00:31:24.163Z,8.90
2022-10-13T00:33:53.229Z,8.90
2022-10-13T00:36:23.485Z,8.90
2022-10-13T00:38:54.078Z,8.90
2022-10-13T00:41:22.107Z,8.90
2022-10-13T00:44:26.701Z,8.90
2022-10-13T00:46:54.425Z,9.00
2022-10-13T00:49:22.413Z,9.00
2022-10-13T00:51:51.152Z,9.00
2022-10-13T00:54:25.700Z,9.00
2022-10-13T00:56:54.915Z,9.00
2022-10-13T00:59:29.276Z,9.00
2022-10-13T01:01:59.612Z,8.90
2022-10-13T01:04:32.413Z,8.90
2022-10-13T01:07:01.553Z,8.90
2022-10-13T01:09:36.265Z,8.90
2022-10-13T01:12:38.270Z,8.90
2022-10-13T01:15:26.822Z,9.00
2022-10-13T01:18:09.539Z,9.00
2022-10-13T01:21:04.292Z,8.90
2022-10-13T01:24:06.615Z,8.90
2022-10-13T01:26:53.643Z,8.90
2022-10-13T01:29:40.456Z,8.90
2022-10-13T01:32:23.351Z,8.90
2022-10-13T01:35:18.338Z,8.90
2022-10-13T01:37:46.291Z,8.90
2022-10-13T01:40:29.165Z,8.90
2022-10-13T01:43:20.475Z,8.90
2022-10-13T01:45:54.530Z,8.90
2022-10-13T01:48:23.439Z,8.90
2022-10-13T01:50:54.471Z,8.90
2022-10-13T01:53:23.438Z,8.90
2022-10-13T01:56:00.239Z,9.00
2022-10-13T01:58:30.880Z,8.90
2022-10-13T02:01:23.452Z,8.90
2022-10-13T02:04:10.031Z,8.90
2022-10-13T02:06:53.669Z,8.90
2022-10-13T02:09:35.495Z,8.90
2022-10-13T02:14:59.802Z,8.90
2022-10-13T02:17:29.098Z,8.90
2022-10-13T02:19:58.626Z,8.90
2022-10-13T02:22:37.191Z,8.90
2022-10-13T02:25:06.041Z,8.90
2022-10-13T02:27:34.264Z,9.00
2022-10-13T02:30:02.231Z,9.00
2022-10-13T02:32:32.618Z,9.00
2022-10-13T02:35:00.529Z,9.00
2022-10-13T02:37:28.376Z,9.00
2022-10-13T02:39:56.620Z,9.00
2022-10-13T02:42:24.438Z,9.00
2022-10-13T02:44:56.716Z,9.00
2022-10-13T02:47:24.526Z,9.00
2022-10-13T03:04:28.807Z,9.10
2022-10-13T03:06:58.660Z,9.10
2022-10-13T03:09:26.808Z,9.10
2022-10-13T03:11:55.060Z,9.20
2022-10-13T03:14:42.659Z,9.20
2022-10-13T03:17:13.559Z,9.20
2022-10-13T03:19:42.090Z,9.30
2022-10-13T03:22:15.671Z,9.20
2022-10-13T03:24:44.031Z,9.20
2022-10-13T03:27:12.158Z,9.20
2022-10-13T03:29:41.110Z,9.20
2022-10-13T03:32:10.064Z,9.20
2022-10-13T03:34:38.039Z,9.20
2022-10-13T03:37:06.688Z,9.20
2022-10-13T03:39:40.795Z,9.20
2022-10-13T03:42:10.470Z,9.30
2022-10-13T03:44:39.486Z,9.30
2022-10-13T03:47:08.023Z,9.20
2022-10-13T03:49:37.727Z,9.20
2022-10-13T03:52:06.195Z,9.20
2022-10-13T03:54:34.566Z,9.20
2022-10-13T03:57:04.217Z,9.30
2022-10-13T03:59:36.565Z,9.30
2022-10-13T04:02:05.477Z,9.30
2022-10-13T04:04:34.530Z,9.30
2022-10-13T04:07:02.742Z,9.30
2022-10-13T04:09:31.232Z,9.30
2022-10-13T04:11:59.370Z,9.40
2022-10-13T04:14:30.211Z,9.40
2022-10-13T04:17:03.689Z,9.40
2022-10-13T04:19:31.771Z,9.40
2022-10-13T04:22:04.978Z,9.50
2022-10-13T04:24:33.079Z,9.50
2022-10-13T04:27:01.159Z,9.50
2022-10-13T04:29:29.517Z,9.60
2022-10-13T04:32:00.444Z,9.60
2022-10-13T04:34:28.534Z,9.60
2022-10-13T04:36:57.784Z,9.60
2022-10-13T04:39:25.826Z,9.70
2022-10-13T04:41:54.042Z,9.70
2022-10-13T04:44:22.478Z,9.70
2022-10-13T04:46:50.539Z,9.80
2022-10-13T04:49:21.244Z,9.80
2022-10-13T04:51:49.725Z,9.80
2022-10-13T04:54:17.917Z,9.80
2022-10-13T04:56:47.140Z,9.90
2022-10-13T04:59:15.266Z,9.90
2022-10-13T05:01:43.391Z,9.90
2022-10-13T05:04:14.722Z,9.90
2022-10-13T05:07:12.635Z,9.90
2022-10-13T05:09:32.236Z,9.90
2022-10-13T05:12:00.409Z,9.90
2022-10-13T05:14:28.564Z,9.90
2022-10-13T05:16:56.876Z,9.90
2022-10-13T05:19:25.187Z,9.90
2022-10-13T05:21:53.657Z,9.90
2022-10-13T05:24:36.706Z,9.90
2022-10-13T05:27:15.053Z,10.00
2022-10-13T05:29:43.273Z,10.00
2022-10-13T05:32:11.908Z,10.00
2022-10-13T05:34:39.932Z,10.00
2022-10-13T05:37:08.107Z,10.00
2022-10-13T05:39:36.393Z,10.10
2022-10-13T05:42:04.722Z,10.10
2022-10-13T05:44:32.993Z,10.20
2022-10-13T05:47:07.469Z,10.20
2022-10-13T05:49:40.067Z,10.20
2022-10-13T05:52:11.820Z,10.20
2022-10-13T05:54:44.944Z,10.20
2022-10-13T05:57:37.327Z,10.30
2022-10-13T06:00:17.218Z,10.30
2022-10-13T06:02:52.772Z,10.30
2022-10-13T06:05:24.027Z,10.30
2022-10-13T06:07:56.600Z,10.40
2022-10-13T06:10:25.829Z,10.40
2022-10-13T06:12:53.958Z,10.40
2022-10-13T06:15:27.076Z,10.40
2022-10-13T06:17:57.936Z,10.40
2022-10-13T06:20:27.798Z,10.50
2022-10-13T06:22:56.491Z,10.50
2022-10-13T06:25:25.191Z,10.50
2022-10-13T06:27:53.339Z,10.50
2022-10-13T06:30:21.373Z,10.60
2022-10-13T06:32:49.684Z,10.60
2022-10-13T06:35:18.229Z,10.70
2022-10-13T06:37:49.016Z,10.70
2022-10-13T06:40:17.541Z,10.70
2022-10-13T06:42:51.277Z,10.80
2022-10-13T06:45:22.651Z,10.80
2022-10-13T06:47:54.760Z,10.90
2022-10-13T06:50:23.910Z,10.90
2022-10-13T06:52:52.724Z,10.90
2022-10-13T06:55:20.964Z,11.00
2022-10-13T06:57:50.255Z,11.00
2022-10-13T07:00:18.557Z,11.00
2022-10-13T07:02:51.647Z,11.10
2022-10-13T07:05:20.049Z,11.20
2022-10-13T07:07:48.501Z,11.20
2022-10-13T07:10:16.697Z,11.20
2022-10-13T07:12:45.402Z,11.30
2022-10-13T07:15:13.580Z,11.30
2022-10-13T07:17:41.723Z,11.40
2022-10-13T07:20:10.650Z,11.50
2022-10-13T07:22:38.798Z,11.50
2022-10-13T07:25:07.392Z,11.60
2022-10-13T07:27:35.803Z,11.60
2022-10-13T07:30:04.942Z,11.60
2022-10-13T07:32:34.164Z,11.70
2022-10-13T07:35:04.726Z,11.70
2022-10-13T07:37:32.808Z,11.70
2022-10-13T07:40:01.266Z,11.80
2022-10-13T07:42:31.493Z,11.80
2022-10-13T07:45:00.031Z,11.90
2022-10-13T07:47:31.497Z,11.90
2022-10-13T07:49:59.882Z,11.90
2022-10-13T07:52:28.320Z,12.00
2022-10-13T07:55:12.994Z,12.10
2022-10-13T07:57:41.470Z,12.10
2022-10-13T08:00:10.756Z,12.20
2022-10-13T08:02:42.445Z,12.20
2022-10-13T08:05:10.588Z,12.20
2022-10-13T08:07:39.613Z,12.30
2022-10-13T08:10:11.034Z,12.30
2022-10-13T08:12:40.201Z,12.30
2022-10-13T08:15:10.582Z,12.30
2022-10-13T08:17:38.945Z,12.40
2022-10-13T08:20:07.734Z,12.40
2022-10-13T08:22:36.165Z,12.40
2022-10-13T08:25:04.562Z,12.50
2022-10-13T08:27:50.240Z,12.60
2022-10-13T08:30:20.556Z,12.60
2022-10-13T08:32:49.148Z,12.70
2022-10-13T08:35:17.600Z,12.70
2022-10-13T08:37:48.914Z,12.80
2022-10-13T08:40:23.296Z,12.80
2022-10-13T08:42:53.635Z,12.90
2022-10-13T08:45:47.429Z,12.90
2022-10-13T08:48:26.018Z,13.00
2022-10-13T08:51:02.329Z,13.10
2022-10-13T08:53:38.177Z,13.10
2022-10-13T08:56:26.453Z,13.20
2022-10-13T08:58:56.900Z,13.20
2022-10-13T09:01:32.893Z,13.30
2022-10-13T09:04:41.217Z,13.30
2022-10-13T09:07:09.947Z,13.40
2022-10-13T09:09:41.564Z,13.50
2022-10-13T09:12:13.936Z,13.50
2022-10-13T09:14:42.326Z,13.60
2022-10-13T09:17:21.211Z,13.60
2022-10-13T09:20:24.372Z,13.70
2022-10-13T09:23:18.349Z,13.80
2022-10-13T09:25:50.261Z,13.80
2022-10-13T09:28:37.997Z,13.90
2022-10-13T09:31:26.363Z,13.90
2022-10-13T09:34:03.962Z,14.00
2022-10-13T09:36:33.529Z,14.10
2022-10-13T09:39:11.960Z,14.10
2022-10-13T09:41:45.517Z,14.20
2022-10-13T09:44:32.309Z,14.20
2022-10-13T09:47:04.259Z,14.30
2022-10-13T09:49:55.386Z,14.30
2022-10-13T09:52:28.203Z,14.40
2022-10-13T09:55:01.347Z,14.40
2022-10-13T09:57:30.276Z,14.50
2022-10-13T10:00:27.845Z,14.50
2022-10-13T10:03:17.186Z,14.60
2022-10-13T10:06:03.163Z,14.60
2022-10-13T10:09:02.807Z,14.60
2022-10-13T10:11:58.242Z,14.50
2022-10-13T10:14:28.459Z,14.50
2022-10-13T10:17:22.221Z,14.60
2022-10-13T10:20:28.586Z,14.50
2022-10-13T10:23:20.562Z,14.60
2022-10-13T10:25:58.384Z,14.50
2022-10-13T10:28:38.411Z,14.60
2022-10-13T10:31:27.021Z,14.70
2022-10-13T10:34:15.400Z,14.70
2022-10-13T10:37:08.419Z,14.80
2022-10-13T10:39:45.520Z,14.80
2022-10-13T10:42:54.403Z,14.90
2022-10-13T10:45:36.070Z,14.90
2022-10-13T10:48:24.175Z,14.90
2022-10-13T10:50:53.577Z,15.00
2022-10-13T10:53:36.586Z,15.10
2022-10-13T10:56:30.819Z,15.10
2022-10-13T10:59:11.715Z,15.10
2022-10-13T11:02:16.462Z,15.10
2022-10-13T11:04:53.358Z,15.10
2022-10-13T11:07:24.194Z,15.10
2022-10-13T11:09:52.675Z,15.20
2022-10-13T11:12:21.484Z,15.10
2022-10-13T11:14:55.635Z,15.10
2022-10-13T11:17:32.246Z,15.10
2022-10-13T11:20:01.120Z,15.00
2022-10-13T11:22:32.214Z,15.00
2022-10-13T11:25:34.947Z,15.00
2022-10-13T11:28:21.408Z,15.00
2022-10-13T11:30:53.221Z,15.00
2022-10-13T11:33:51.193Z,15.00
2022-10-13T11:36:31.008Z,15.00
2022-10-13T11:42:11.874Z,14.90
2022-10-13T11:45:00.301Z,14.90
2022-10-13T11:47:56.011Z,14.90
2022-10-13T11:50:52.677Z,14.90
2022-10-13T11:53:26.499Z,14.90
2022-10-13T11:56:01.747Z,14.90
2022-10-13T11:58:31.820Z,14.90
2022-10-13T12:01:06.709Z,14.90
2022-10-13T12:07:08.321Z,14.90
2022-10-13T12:09:51.845Z,14.90
2022-10-13T12:12:24.527Z,14.90
2022-10-13T12:14:55.178Z,14.90
2022-10-13T12:17:27.649Z,14.90
2022-10-13T12:19:58.804Z,14.90
2022-10-13T12:22:29.856Z,14.90
2022-10-13T12:25:07.566Z,14.90
2022-10-13T12:27:51.198Z,14.90
2022-10-13T12:30:21.564Z,15.00
2022-10-13T12:32:52.364Z,14.90
2022-10-13T12:35:32.657Z,15.00
2022-10-13T12:38:17.605Z,15.00
2022-10-13T12:40:51.575Z,15.00
2022-10-13T12:43:26.021Z,14.90
2022-10-13T12:45:54.355Z,14.90
2022-10-13T12:48:34.456Z,14.90
2022-10-13T12:51:15.580Z,14.90
2022-10-13T12:53:46.345Z,14.90
2022-10-13T12:56:31.379Z,15.00
2022-10-13T12:59:00.150Z,14.90
2022-10-13T13:01:35.669Z,14.90
2022-10-13T13:04:23.094Z,14.90
2022-10-13T13:07:03.548Z,14.90
2022-10-13T13:09:38.242Z,14.90
2022-10-13T13:12:21.797Z,14.90
2022-10-13T13:14:55.233Z,14.90
2022-10-13T13:20:30.228Z,14.90
2022-10-13T13:22:58.635Z,14.90
2022-10-13T13:25:27.122Z,14.80
2022-10-13T13:27:55.226Z,14.80
2022-10-13T13:30:24.698Z,14.80
2022-10-13T13:32:52.733Z,14.70
2022-10-13T13:35:21.232Z,14.70
2022-10-13T13:37:56.296Z,14.60
2022-10-13T13:40:28.049Z,14.60
2022-10-13T13:42:57.798Z,14.50
2022-10-13T13:45:34.684Z,14.40
2022-10-13T13:48:04.922Z,14.40
2022-10-13T13:50:38.243Z,14.40
2022-10-13T13:53:07.610Z,14.30
2022-10-13T13:55:40.346Z,14.20
2022-10-13T13:58:12.033Z,14.20
2022-10-13T14:00:41.249Z,14.20
2022-10-13T14:03:10.239Z,14.10
2022-10-13T14:05:41.938Z,14.10
2022-10-13T14:08:11.262Z,14.10
2022-10-13T14:10:42.002Z,14.10
2022-10-13T14:13:11.527Z,14.10
2022-10-13T14:15:40.628Z,14.00
2022-10-13T14:18:10.000Z,14.00
2022-10-13T14:20:42.840Z,14.00
2022-10-13T14:23:12.162Z,13.90
2022-10-13T14:25:44.986Z,13.90
2022-10-13T14:28:18.007Z,13.90
2022-10-13T14:30:47.746Z,13.90
2022-10-13T14:33:19.928Z,13.80
2022-10-13T14:35:51.365Z,13.80
2022-10-13T14:38:21.208Z,13.70
2022-10-13T14:40:50.896Z,13.70
2022-10-13T14:43:20.039Z,13.70
2022-10-13T14:45:49.091Z,13.70
2022-10-13T14:48:19.495Z,13.60
2022-10-13T14:50:53.455Z,13.60
2022-10-13T14:53:21.409Z,13.60
2022-10-13T14:55:49.358Z,13.60
2022-10-13T14:58:17.641Z,13.60
2022-10-13T15:00:45.646Z,13.50
2022-10-13T15:03:13.628Z,13.50
2022-10-13T15:05:42.097Z,13.50
2022-10-13T15:08:10.134Z,13.40
2022-10-13T15:14:11.845Z,13.40
2022-10-13T15:16:40.203Z,13.30
2022-10-13T15:19:08.136Z,13.30
2022-10-13T15:21:36.210Z,13.20
2022-10-13T15:24:04.804Z,13.20
2022-10-13T15:26:33.190Z,13.20
2022-10-13T15:29:03.695Z,13.10
2022-10-13T15:31:32.051Z,13.10
2022-10-13T15:34:02.165Z,13.00
2022-10-13T15:36:30.278Z,13.00
2022-10-13T15:38:59.053Z,13.00
2022-10-13T15:41:27.256Z,12.90
2022-10-13T15:43:55.211Z,12.90
2022-10-13T15:46:24.616Z,12.80
2022-10-13T15:48:53.663Z,12.80
2022-10-13T15:51:24.620Z,12.70
2022-10-13T15:53:53.759Z,12.70
2022-10-13T15:56:21.866Z,12.60
2022-10-13T15:58:50.733Z,12.60
2022-10-13T16:01:19.528Z,12.50
2022-10-13T16:03:47.557Z,12.50
2022-10-13T16:06:15.917Z,12.40
2022-10-13T16:08:44.578Z,12.40
2022-10-13T16:11:21.454Z,12.30
2022-10-13T16:14:10.286Z,12.30
2022-10-13T16:16:38.717Z,12.30
2022-10-13T16:19:07.071Z,12.20
2022-10-13T16:21:35.493Z,12.10
2022-10-13T16:24:09.057Z,12.10
2022-10-13T16:26:37.603Z,12.10
2022-10-13T16:29:06.671Z,12.00
2022-10-13T16:31:37.812Z,12.00
2022-10-13T16:34:06.667Z,11.90
2022-10-13T16:36:35.173Z,11.90
2022-10-13T16:39:03.340Z,11.80
2022-10-13T16:41:31.825Z,11.80
2022-10-13T16:43:59.897Z,11.80
2022-10-13T16:46:28.332Z,11.80
2022-10-13T16:49:03.033Z,11.80
2022-10-13T16:51:31.451Z,11.70
2022-10-13T16:54:04.152Z,11.70
2022-10-13T16:56:33.221Z,11.60
2022-10-13T16:59:03.454Z,11.60
2022-10-13T17:01:32.454Z,11.60
2022-10-13T17:04:01.325Z,11.60
2022-10-13T17:06:29.802Z,11.50
2022-10-13T17:08:59.495Z,11.50
2022-10-13T17:11:30.548Z,11.50
2022-10-13T17:14:00.293Z,11.50
2022-10-13T17:16:33.021Z,11.40
2022-10-13T17:19:01.203Z,11.40
2022-10-13T17:21:37.144Z,11.40
2022-10-13T17:24:07.532Z,11.40
2022-10-13T17:26:35.952Z,11.30
2022-10-13T17:29:04.363Z,11.30
2022-10-13T17:31:32.187Z,11.30
2022-10-13T17:34:00.688Z,11.30
2022-10-13T17:36:32.068Z,11.30
2022-10-13T17:39:05.712Z,11.20
2022-10-13T17:41:35.123Z,11.20
2022-10-13T17:44:03.680Z,11.20
2022-10-13T17:46:37.821Z,11.20
2022-10-13T17:49:10.405Z,11.20
2022-10-13T17:51:39.195Z,11.10
2022-10-13T17:54:12.937Z,11.10
2022-10-13T17:56:43.953Z,11.10
2022-10-13T17:59:12.453Z,11.10
2022-10-13T18:01:42.388Z,11.10
2022-10-13T18:04:13.399Z,11.10
2022-10-13T18:06:46.069Z,11.00
2022-10-13T18:09:20.930Z,11.00
2022-10-13T18:11:51.302Z,11.00
2022-10-13T18:14:20.550Z,10.90
2022-10-13T18:16:50.804Z,10.90
2022-10-13T18:19:18.641Z,10.90
2022-10-13T18:21:47.220Z,10.90
2022-10-13T18:24:15.191Z,10.80
2022-10-13T18:26:42.997Z,10.80
2022-10-13T18:29:12.690Z,10.80
2022-10-13T18:31:41.745Z,10.80
2022-10-13T18:34:13.964Z,10.70
2022-10-13T18:36:47.509Z,10.70
2022-10-13T18:39:27.061Z,10.70
2022-10-13T18:41:57.228Z,10.70
2022-10-13T18:44:35.074Z,10.60
2022-10-13T18:47:03.371Z,10.60
2022-10-13T18:49:31.414Z,10.60
2022-10-13T18:52:01.360Z,10.50
2022-10-13T18:54:30.418Z,10.50
2022-10-13T18:56:58.625Z,10.50
2022-10-13T18:59:26.855Z,10.40
2022-10-13T19:01:54.643Z,10.40
2022-10-13T19:04:22.709Z,10.40
2022-10-13T19:06:51.869Z,10.40
2022-10-13T19:09:21.832Z,10.30
2022-10-13T19:11:55.477Z,10.30
2022-10-13T19:14:27.787Z,10.30
2022-10-13T19:17:02.012Z,10.30
2022-10-13T19:19:30.970Z,10.20
2022-10-13T19:22:01.377Z,10.20
2022-10-13T19:24:29.526Z,10.20
2022-10-13T19:26:57.538Z,10.20
2022-10-13T19:29:25.738Z,10.20
2022-10-13T19:31:53.585Z,10.10
2022-10-13T19:34:22.122Z,10.10
2022-10-13T19:36:50.323Z,10.10
2022-10-13T19:39:24.199Z,10.10
2022-10-13T19:41:54.462Z,10.00
2022-10-13T19:44:23.923Z,10.00
2022-10-13T19:46:55.244Z,10.00
2022-10-13T19:49:26.506Z,9.90
2022-10-13T19:51:57.940Z,9.90
2022-10-13T19:54:29.008Z,9.80
2022-10-13T19:56:59.694Z,9.90
2022-10-13T19:59:28.325Z,9.80
2022-10-13T20:01:56.973Z,9.80
2022-10-13T20:04:25.177Z,9.80
2022-10-13T20:06:53.013Z,9.70
2022-10-13T20:09:21.903Z,9.70
2022-10-13T20:11:51.804Z,9.70
2022-10-13T20:14:20.201Z,9.70
2022-10-13T20:16:49.061Z,9.70
2022-10-13T20:19:19.675Z,9.60
2022-10-13T20:21:51.926Z,9.70
2022-10-13T20:24:21.841Z,9.70
2022-10-13T20:26:50.463Z,9.60
2022-10-13T20:29:23.366Z,9.60
2022-10-13T20:31:51.725Z,9.60
2022-10-13T20:34:19.688Z,9.60
2022-10-13T20:36:51.228Z,9.60
2022-10-13T20:39:20.248Z,9.50
2022-10-13T20:41:48.048Z,9.50
2022-10-13T20:44:15.803Z,9.50
2022-10-13T20:46:43.850Z,9.50
2022-10-13T20:49:12.924Z,9.50
2022-10-13T20:51:42.976Z,9.50
2022-10-13T20:54:13.844Z,9.50
2022-10-13T20:56:42.163Z,9.50
2022-10-13T20:59:12.291Z,9.40
2022-10-13T21:01:40.719Z,9.40
2022-10-13T21:04:09.582Z,9.40
2022-10-13T21:06:37.795Z,9.40
2022-10-13T21:09:06.525Z,9.40
2022-10-13T21:11:35.521Z,9.40
2022-10-13T21:14:07.075Z,9.30
2022-10-13T21:16:37.708Z,9.30
2022-10-13T21:19:10.295Z,9.30
2022-10-13T21:21:38.542Z,9.20
2022-10-13T21:24:08.276Z,9.20
2022-10-13T21:26:36.810Z,9.20
2022-10-13T21:29:05.831Z,9.20
2022-10-13T21:31:35.878Z,9.20
2022-10-13T21:34:04.251Z,9.10
2022-10-13T21:36:33.843Z,9.10
2022-10-13T21:39:06.126Z,9.10
2022-10-13T21:41:34.468Z,9.00
2022-10-13T21:44:02.872Z,9.00
2022-10-13T21:46:34.528Z,9.00
2022-10-13T21:49:05.883Z,9.00
2022-10-13T21:51:40.612Z,9.00
2022-10-13T21:54:13.726Z,9.00
2022-10-13T21:56:42.534Z,9.00
2022-10-13T21:59:13.087Z,9.00
2022-10-13T22:01:41.995Z,8.90
2022-10-13T22:04:14.216Z,8.90
2022-10-13T22:06:42.395Z,8.90
2022-10-13T22:09:10.821Z,8.90
2022-10-13T22:11:40.132Z,8.90
2022-10-13T22:14:12.285Z,8.90
2022-10-13T22:16:46.151Z,8.90
2022-10-13T22:19:15.012Z,8.90
2022-10-13T22:21:45.706Z,8.90
2022-10-13T22:24:15.936Z,8.90
2022-10-13T22:26:45.506Z,8.90
2022-10-13T22:29:16.292Z,8.90
2022-10-13T22:31:44.174Z,8.80
2022-10-13T22:34:14.115Z,8.80
2022-10-13T22:36:45.061Z,8.80
2022-10-13T22:39:15.086Z,8.80
2022-10-13T22:41:43.094Z,8.80
2022-10-13T22:44:10.903Z,8.80
2022-10-13T22:46:39.957Z,8.80
2022-10-13T22:49:13.523Z,8.80
2022-10-13T22:51:41.788Z,8.70
2022-10-13T22:54:09.857Z,8.70
2022-10-13T22:56:37.703Z,8.60
2022-10-13T22:59:07.735Z,8.60
2022-10-13T23:01:35.721Z,8.60
2022-10-13T23:04:03.902Z,8.50
2022-10-13T23:06:34.843Z,8.50
2022-10-13T23:09:07.458Z,8.40
2022-10-13T23:11:36.537Z,8.40
2022-10-13T23:14:06.939Z,8.40
2022-10-13T23:16:35.062Z,8.30
2022-10-13T23:19:03.978Z,8.30
2022-10-13T23:21:31.856Z,8.30
2022-10-13T23:24:02.729Z,8.30
2022-10-13T23:26:32.252Z,8.30
2022-10-13T23:29:00.831Z,8.30
2022-10-13T23:31:29.395Z,8.30
2022-10-13T23:33:58.942Z,8.30
2022-10-13T23:36:29.563Z,8.30
2022-10-13T23:38:58.483Z,8.20
2022-10-13T23:41:27.211Z,8.20
2022-10-13T23:43:55.338Z,8.20
2022-10-13T23:46:23.523Z,8.20
2022-10-13T23:48:51.750Z,8.20
2022-10-13T23:51:23.386Z,8.10
2022-10-13T23:53:52.416Z,8.10
2022-10-13T23:56:21.141Z,8.10
2022-10-13T23:58:49.254Z,8.10
